sensor_id;sensor_type;location;lat;lon;timestamp;temperature;humidity
25753;DHT22;13600;50.816;4.416;2022-11-11T00:00:36;11.50;99.90
25753;DHT22;13600;50.816;4.416;2022-11-11T00:03:02;11.50;99.90
25753;DHT22;13600;50.816;4.416;2022-11-11T00:05:28;11.50;99.90
25753;DHT22;13600;50.816;4.416;2022-11-11T00:07:55;11.40;99.90
25753;DHT22;13600;50.816;4.416;2022-11-11T00:10:27;11.30;99.90
25753;DHT22;13600;50.816;4.416;2022-11-11T00:12:53;11.40;99.90
25753;DHT22;13600;50.816;4.416;2022-11-11T00:15:19;11.40;99.90
25753;DHT22;13600;50.816;4.416;2022-11-11T00:17:44;11.30;99.90
25753;DHT22;13600;50.816;4.416;2022-11-11T00:20:28;11.30;99.90
25753;DHT22;13600;50.816;4.416;2022-11-11T00:23:21;11.30;99.90
25753;DHT22;13600;50.816;4.416;2022-11-11T00:26:07;11.40;99.90
25753;DHT22;13600;50.816;4.416;2022-11-11T00:28:33;11.20;99.90
25753;DHT22;13600;50.816;4.416;2022-11-11T00:31:03;11.10;99.90
25753;DHT22;13600;50.816;4.416;2022-11-11T00:33:30;11.10;99.90
25753;DHT22;13600;50.816;4.416;2022-11-11T00:35:55;11.00;99.90
25753;DHT22;13600;50.816;4.416;2022-11-11T00:38:28;11.10;99.90
25753;DHT22;13600;50.816;4.416;2022-11-11T00:41:17;11.10;99.90
25753;DHT22;13600;50.816;4.416;2022-11-11T00:43:44;11.20;99.90
25753;DHT22;13600;50.816;4.416;2022-11-11T00:46:10;11.20;99.90
25753;DHT22;13600;50.816;4.416;2022-11-11T00:48:57;11.20;99.90
25753;DHT22;13600;50.816;4.416;2022-11-11T00:51:41;11.20;99.90
25753;DHT22;13600;50.816;4.416;2022-11-11T00:54:07;11.20;99.90
25753;DHT22;13600;50.816;4.416;2022-11-11T00:56:34;11.20;99.90
25753;DHT22;13600;50.816;4.416;2022-11-11T00:59:05;11.10;99.90
25753;DHT22;13600;50.816;4.416;2022-11-11T01:01:32;11.10;99.90
25753;DHT22;13600;50.816;4.416;2022-11-11T01:03:58;11.30;99.90
25753;DHT22;13600;50.816;4.416;2022-11-11T01:06:26;11.40;99.90
25753;DHT22;13600;50.816;4.416;2022-11-11T01:08:51;11.40;99.90
25753;DHT22;13600;50.816;4.416;2022-11-11T01:11:20;11.30;99.90
25753;DHT22;13600;50.816;4.416;2022-11-11T01:13:46;11.30;99.90
25753;DHT22;13600;50.816;4.416;2022-11-11T01:16:16;11.40;99.90
25753;DHT22;13600;50.816;4.416;2022-11-11T01:18:43;11.40;99.90
25753;DHT22;13600;50.816;4.416;2022-11-11T01:21:14;11.50;99.90
25753;DHT22;13600;50.816;4.416;2022-11-11T01:23:42;11.40;99.90
25753;DHT22;13600;50.816;4.416;2022-11-11T01:26:13;11.50;99.90
25753;DHT22;13600;50.816;4.416;2022-11-11T01:28:39;11.60;99.90
25753;DHT22;13600;50.816;4.416;2022-11-11T01:31:07;11.60;99.90
25753;DHT22;13600;50.816;4.416;2022-11-11T01:33:34;11.50;99.90
25753;DHT22;13600;50.816;4.416;2022-11-11T01:38:32;11.50;99.90
25753;DHT22;13600;50.816;4.416;2022-11-11T01:40:58;11.50;99.90
25753;DHT22;13600;50.816;4.416;2022-11-11T01:43:24;11.40;99.90
25753;DHT22;13600;50.816;4.416;2022-11-11T01:45:58;11.40;99.90
25753;DHT22;13600;50.816;4.416;2022-11-11T01:48:30;11.40;99.90
25753;DHT22;13600;50.816;4.416;2022-11-11T01:54:07;11.50;99.90
25753;DHT22;13600;50.816;4.416;2022-11-11T01:56:35;11.40;99.90
25753;DHT22;13600;50.816;4.416;2022-11-11T01:59:06;11.30;99.90
25753;DHT22;13600;50.816;4.416;2022-11-11T02:01:34;11.30;99.90
25753;DHT22;13600;50.816;4.416;2022-11-11T02:04:01;11.40;99.90
25753;DHT22;13600;50.816;4.416;2022-11-11T02:06:54;11.40;99.90
25753;DHT22;13600;50.816;4.416;2022-11-11T02:09:22;11.40;99.90
25753;DHT22;13600;50.816;4.416;2022-11-11T02:11:50;11.40;99.90
25753;DHT22;13600;50.816;4.416;2022-11-11T02:14:41;11.30;99.90
25753;DHT22;13600;50.816;4.416;2022-11-11T02:17:13;11.40;99.90
25753;DHT22;13600;50.816;4.416;2022-11-11T02:19:49;11.40;99.90
25753;DHT22;13600;50.816;4.416;2022-11-11T02:25:08;11.20;99.90
25753;DHT22;13600;50.816;4.416;2022-11-11T02:27:37;11.20;99.90
25753;DHT22;13600;50.816;4.416;2022-11-11T02:30:06;11.20;99.90
25753;DHT22;13600;50.816;4.416;2022-11-11T02:32:41;11.30;99.90
25753;DHT22;13600;50.816;4.416;2022-11-11T02:35:21;11.30;99.90
25753;DHT22;13600;50.816;4.416;2022-11-11T02:37:50;11.20;99.90
25753;DHT22;13600;50.816;4.416;2022-11-11T02:42:45;11.30;99.90
25753;DHT22;13600;50.816;4.416;2022-11-11T02:45:11;11.30;99.90
25753;DHT22;13600;50.816;4.416;2022-11-11T02:47:37;11.30;99.90
25753;DHT22;13600;50.816;4.416;2022-11-11T02:50:03;11.40;99.90
25753;DHT22;13600;50.816;4.416;2022-11-11T02:52:29;11.30;99.90
25753;DHT22;13600;50.816;4.416;2022-11-11T02:54:54;11.30;99.90
25753;DHT22;13600;50.816;4.416;2022-11-11T02:57:20;11.20;99.90
25753;DHT22;13600;50.816;4.416;2022-11-11T02:59:46;11.20;99.90
25753;DHT22;13600;50.816;4.416;2022-11-11T03:02:12;11.10;99.90
25753;DHT22;13600;50.816;4.416;2022-11-11T03:04:38;11.10;99.90
25753;DHT22;13600;50.816;4.416;2022-11-11T03:07:04;11.20;99.90
25753;DHT22;13600;50.816;4.416;2022-11-11T03:09:30;11.00;99.90
25753;DHT22;13600;50.816;4.416;2022-11-11T03:11:56;11.00;99.90
25753;DHT22;13600;50.816;4.416;2022-11-11T03:14:22;11.00;99.90
25753;DHT22;13600;50.816;4.416;2022-11-11T03:16:48;11.10;99.90
25753;DHT22;13600;50.816;4.416;2022-11-11T03:19:32;11.10;99.90
25753;DHT22;13600;50.816;4.416;2022-11-11T03:21:58;11.20;99.90
25753;DHT22;13600;50.816;4.416;2022-11-11T03:24:24;11.10;99.90
25753;DHT22;13600;50.816;4.416;2022-11-11T03:27:10;11.10;99.90
25753;DHT22;13600;50.816;4.416;2022-11-11T03:29:36;11.20;99.90
25753;DHT22;13600;50.816;4.416;2022-11-11T03:32:01;11.30;99.90
25753;DHT22;13600;50.816;4.416;2022-11-11T03:34:28;11.30;99.90
25753;DHT22;13600;50.816;4.416;2022-11-11T03:36:53;11.30;99.90
25753;DHT22;13600;50.816;4.416;2022-11-11T03:39:38;11.30;99.90
25753;DHT22;13600;50.816;4.416;2022-11-11T03:42:03;11.20;99.90
25753;DHT22;13600;50.816;4.416;2022-11-11T03:44:29;11.20;99.90
25753;DHT22;13600;50.816;4.416;2022-11-11T03:46:54;11.20;99.90
25753;DHT22;13600;50.816;4.416;2022-11-11T03:49:21;11.20;99.90
25753;DHT22;13600;50.816;4.416;2022-11-11T03:51:47;11.30;99.90
25753;DHT22;13600;50.816;4.416;2022-11-11T03:54:12;11.30;99.90
25753;DHT22;13600;50.816;4.416;2022-11-11T03:56:38;11.30;99.90
25753;DHT22;13600;50.816;4.416;2022-11-11T03:59:03;11.40;99.90
25753;DHT22;13600;50.816;4.416;2022-11-11T04:01:29;11.60;99.90
25753;DHT22;13600;50.816;4.416;2022-11-11T04:04:13;11.60;99.90
25753;DHT22;13600;50.816;4.416;2022-11-11T04:06:57;11.50;99.90
25753;DHT22;13600;50.816;4.416;2022-11-11T04:09:42;11.70;99.90
25753;DHT22;13600;50.816;4.416;2022-11-11T04:12:26;11.60;99.90
25753;DHT22;13600;50.816;4.416;2022-11-11T04:14:52;11.70;99.90
25753;DHT22;13600;50.816;4.416;2022-11-11T04:17:36;11.60;99.90
25753;DHT22;13600;50.816;4.416;2022-11-11T04:20:03;11.50;99.90
25753;DHT22;13600;50.816;4.416;2022-11-11T04:22:47;11.30;99.90
25753;DHT22;13600;50.816;4.416;2022-11-11T04:25:13;11.10;99.90
25753;DHT22;13600;50.816;4.416;2022-11-11T04:27:57;10.90;99.90
25753;DHT22;13600;50.816;4.416;2022-11-11T04:30:42;10.80;99.90
25753;DHT22;13600;50.816;4.416;2022-11-11T04:33:08;10.80;99.90
25753;DHT22;13600;50.816;4.416;2022-11-11T04:35:34;10.90;99.90
25753;DHT22;13600;50.816;4.416;2022-11-11T04:38:00;10.90;99.90
25753;DHT22;13600;50.816;4.416;2022-11-11T04:40:45;11.00;99.90
25753;DHT22;13600;50.816;4.416;2022-11-11T04:43:30;10.80;99.90
25753;DHT22;13600;50.816;4.416;2022-11-11T04:45:59;10.80;99.90
25753;DHT22;13600;50.816;4.416;2022-11-11T04:48:25;10.60;99.90
25753;DHT22;13600;50.816;4.416;2022-11-11T04:50:52;10.60;99.90
25753;DHT22;13600;50.816;4.416;2022-11-11T04:53:17;10.60;99.90
25753;DHT22;13600;50.816;4.416;2022-11-11T04:55:44;10.60;99.90
25753;DHT22;13600;50.816;4.416;2022-11-11T04:58:33;10.50;99.90
25753;DHT22;13600;50.816;4.416;2022-11-11T05:00:59;10.40;99.90
25753;DHT22;13600;50.816;4.416;2022-11-11T05:03:25;10.50;99.90
25753;DHT22;13600;50.816;4.416;2022-11-11T05:08:43;10.60;99.90
25753;DHT22;13600;50.816;4.416;2022-11-11T05:11:28;10.50;99.90
25753;DHT22;13600;50.816;4.416;2022-11-11T05:13:57;10.40;99.90
25753;DHT22;13600;50.816;4.416;2022-11-11T05:16:55;10.40;99.90
25753;DHT22;13600;50.816;4.416;2022-11-11T05:19:41;10.50;99.90
25753;DHT22;13600;50.816;4.416;2022-11-11T05:22:37;10.50;99.90
25753;DHT22;13600;50.816;4.416;2022-11-11T05:25:04;10.60;99.90
25753;DHT22;13600;50.816;4.416;2022-11-11T05:27:49;10.60;99.90
25753;DHT22;13600;50.816;4.416;2022-11-11T05:30:15;10.60;99.90
25753;DHT22;13600;50.816;4.416;2022-11-11T05:32:42;10.50;99.90
25753;DHT22;13600;50.816;4.416;2022-11-11T05:35:09;10.30;99.90
25753;DHT22;13600;50.816;4.416;2022-11-11T05:37:36;10.20;99.90
25753;DHT22;13600;50.816;4.416;2022-11-11T05:40:01;10.10;99.90
25753;DHT22;13600;50.816;4.416;2022-11-11T05:42:27;10.10;99.90
25753;DHT22;13600;50.816;4.416;2022-11-11T05:44:53;10.10;99.90
25753;DHT22;13600;50.816;4.416;2022-11-11T05:47:18;10.10;99.90
25753;DHT22;13600;50.816;4.416;2022-11-11T05:49:44;10.10;99.90
25753;DHT22;13600;50.816;4.416;2022-11-11T05:52:11;10.10;99.90
25753;DHT22;13600;50.816;4.416;2022-11-11T05:54:37;10.00;99.90
25753;DHT22;13600;50.816;4.416;2022-11-11T05:57:03;10.00;99.90
25753;DHT22;13600;50.816;4.416;2022-11-11T05:59:29;10.10;99.90
25753;DHT22;13600;50.816;4.416;2022-11-11T06:01:54;10.20;99.90
25753;DHT22;13600;50.816;4.416;2022-11-11T06:04:20;10.20;99.90
25753;DHT22;13600;50.816;4.416;2022-11-11T06:06:46;10.20;99.90
25753;DHT22;13600;50.816;4.416;2022-11-11T06:09:12;10.40;99.90
25753;DHT22;13600;50.816;4.416;2022-11-11T06:11:37;10.40;99.90
25753;DHT22;13600;50.816;4.416;2022-11-11T06:14:03;10.40;99.90
25753;DHT22;13600;50.816;4.416;2022-11-11T06:16:29;10.40;99.90
25753;DHT22;13600;50.816;4.416;2022-11-11T06:18:55;10.30;99.90
25753;DHT22;13600;50.816;4.416;2022-11-11T06:21:21;10.30;99.90
25753;DHT22;13600;50.816;4.416;2022-11-11T06:23:46;10.30;99.90
25753;DHT22;13600;50.816;4.416;2022-11-11T06:26:13;10.10;99.90
25753;DHT22;13600;50.816;4.416;2022-11-11T06:28:49;10.10;99.90
25753;DHT22;13600;50.816;4.416;2022-11-11T06:31:17;10.00;99.90
25753;DHT22;13600;50.816;4.416;2022-11-11T06:33:43;10.00;99.90
25753;DHT22;13600;50.816;4.416;2022-11-11T06:36:12;9.90;99.90
25753;DHT22;13600;50.816;4.416;2022-11-11T06:38:39;10.00;99.90
25753;DHT22;13600;50.816;4.416;2022-11-11T06:41:05;10.00;99.90
25753;DHT22;13600;50.816;4.416;2022-11-11T06:43:31;10.00;99.90
25753;DHT22;13600;50.816;4.416;2022-11-11T06:45:57;10.10;99.90
25753;DHT22;13600;50.816;4.416;2022-11-11T06:48:25;10.00;99.90
25753;DHT22;13600;50.816;4.416;2022-11-11T06:50:51;9.90;99.90
25753;DHT22;13600;50.816;4.416;2022-11-11T06:53:18;9.80;99.90
25753;DHT22;13600;50.816;4.416;2022-11-11T06:55:43;10.00;99.90
25753;DHT22;13600;50.816;4.416;2022-11-11T06:58:17;10.00;99.90
25753;DHT22;13600;50.816;4.416;2022-11-11T07:00:45;10.00;99.90
25753;DHT22;13600;50.816;4.416;2022-11-11T07:03:13;9.90;99.90
25753;DHT22;13600;50.816;4.416;2022-11-11T07:05:39;9.90;99.90
25753;DHT22;13600;50.816;4.416;2022-11-11T07:08:08;9.80;99.90
25753;DHT22;13600;50.816;4.416;2022-11-11T07:10:35;9.80;99.90
25753;DHT22;13600;50.816;4.416;2022-11-11T07:13:02;9.80;99.90
25753;DHT22;13600;50.816;4.416;2022-11-11T07:15:28;9.90;99.90
25753;DHT22;13600;50.816;4.416;2022-11-11T07:17:54;10.00;99.90
25753;DHT22;13600;50.816;4.416;2022-11-11T07:20:19;9.80;99.90
25753;DHT22;13600;50.816;4.416;2022-11-11T07:22:45;10.00;99.90
25753;DHT22;13600;50.816;4.416;2022-11-11T07:25:11;10.10;99.90
25753;DHT22;13600;50.816;4.416;2022-11-11T07:27:38;10.10;99.90
25753;DHT22;13600;50.816;4.416;2022-11-11T07:30:04;10.10;99.90
25753;DHT22;13600;50.816;4.416;2022-11-11T07:32:30;10.10;99.90
25753;DHT22;13600;50.816;4.416;2022-11-11T07:34:56;10.10;99.90
25753;DHT22;13600;50.816;4.416;2022-11-11T07:37:22;10.10;99.90
25753;DHT22;13600;50.816;4.416;2022-11-11T07:39:47;9.90;99.90
25753;DHT22;13600;50.816;4.416;2022-11-11T07:42:13;9.90;99.90
25753;DHT22;13600;50.816;4.416;2022-11-11T07:44:40;9.90;99.90
25753;DHT22;13600;50.816;4.416;2022-11-11T07:47:06;9.90;99.90
25753;DHT22;13600;50.816;4.416;2022-11-11T07:49:32;10.00;99.90
25753;DHT22;13600;50.816;4.416;2022-11-11T07:51:58;9.90;99.90
25753;DHT22;13600;50.816;4.416;2022-11-11T07:54:23;10.00;99.90
25753;DHT22;13600;50.816;4.416;2022-11-11T07:56:49;10.10;99.90
25753;DHT22;13600;50.816;4.416;2022-11-11T07:59:15;10.10;99.90
25753;DHT22;13600;50.816;4.416;2022-11-11T08:01:40;10.30;99.90
25753;DHT22;13600;50.816;4.416;2022-11-11T08:04:06;10.30;99.90
25753;DHT22;13600;50.816;4.416;2022-11-11T08:06:31;10.30;99.90
25753;DHT22;13600;50.816;4.416;2022-11-11T08:08:57;10.50;99.90
25753;DHT22;13600;50.816;4.416;2022-11-11T08:11:23;10.40;99.90
25753;DHT22;13600;50.816;4.416;2022-11-11T08:14:07;10.30;99.90
25753;DHT22;13600;50.816;4.416;2022-11-11T08:16:33;10.50;99.90
25753;DHT22;13600;50.816;4.416;2022-11-11T08:18:59;10.60;99.90
25753;DHT22;13600;50.816;4.416;2022-11-11T08:21:25;10.60;99.90
25753;DHT22;13600;50.816;4.416;2022-11-11T08:23:51;10.50;99.90
25753;DHT22;13600;50.816;4.416;2022-11-11T08:26:17;10.50;99.90
25753;DHT22;13600;50.816;4.416;2022-11-11T08:28:43;10.60;99.90
25753;DHT22;13600;50.816;4.416;2022-11-11T08:31:10;10.70;99.90
25753;DHT22;13600;50.816;4.416;2022-11-11T08:33:36;10.90;99.90
25753;DHT22;13600;50.816;4.416;2022-11-11T08:36:02;11.00;99.90
25753;DHT22;13600;50.816;4.416;2022-11-11T08:38:28;10.90;99.90
25753;DHT22;13600;50.816;4.416;2022-11-11T08:40:54;10.90;99.90
25753;DHT22;13600;50.816;4.416;2022-11-11T08:43:20;10.80;99.90
25753;DHT22;13600;50.816;4.416;2022-11-11T08:45:46;10.90;99.90
25753;DHT22;13600;50.816;4.416;2022-11-11T08:48:12;11.00;99.90
25753;DHT22;13600;50.816;4.416;2022-11-11T08:50:39;11.10;99.90
25753;DHT22;13600;50.816;4.416;2022-11-11T08:53:07;11.20;99.90
25753;DHT22;13600;50.816;4.416;2022-11-11T08:55:34;11.20;99.90
25753;DHT22;13600;50.816;4.416;2022-11-11T08:58:02;11.20;99.90
25753;DHT22;13600;50.816;4.416;2022-11-11T09:00:28;11.30;99.90
25753;DHT22;13600;50.816;4.416;2022-11-11T09:02:54;11.30;99.90
25753;DHT22;13600;50.816;4.416;2022-11-11T09:05:19;11.20;99.90
25753;DHT22;13600;50.816;4.416;2022-11-11T09:07:46;11.20;99.90
25753;DHT22;13600;50.816;4.416;2022-11-11T09:10:12;11.10;99.90
25753;DHT22;13600;50.816;4.416;2022-11-11T09:12:38;11.10;99.90
25753;DHT22;13600;50.816;4.416;2022-11-11T09:15:04;11.10;99.90
25753;DHT22;13600;50.816;4.416;2022-11-11T09:17:30;11.10;99.90
25753;DHT22;13600;50.816;4.416;2022-11-11T09:19:56;11.10;99.90
25753;DHT22;13600;50.816;4.416;2022-11-11T09:22:21;11.10;99.90
25753;DHT22;13600;50.816;4.416;2022-11-11T09:24:47;11.40;99.90
25753;DHT22;13600;50.816;4.416;2022-11-11T09:27:12;11.60;99.90
25753;DHT22;13600;50.816;4.416;2022-11-11T09:29:38;11.80;99.90
25753;DHT22;13600;50.816;4.416;2022-11-11T09:32:05;11.90;99.90
25753;DHT22;13600;50.816;4.416;2022-11-11T09:34:31;11.80;99.90
25753;DHT22;13600;50.816;4.416;2022-11-11T09:36:57;11.70;99.90
25753;DHT22;13600;50.816;4.416;2022-11-11T09:39:23;11.80;99.90
25753;DHT22;13600;50.816;4.416;2022-11-11T09:47:54;12.30;99.90
25753;DHT22;13600;50.816;4.416;2022-11-11T09:50:24;12.50;99.90
25753;DHT22;13600;50.816;4.416;2022-11-11T09:52:56;12.50;99.90
25753;DHT22;13600;50.816;4.416;2022-11-11T09:55:30;12.40;99.90
25753;DHT22;13600;50.816;4.416;2022-11-11T09:58:19;12.40;99.90
25753;DHT22;13600;50.816;4.416;2022-11-11T10:03:39;12.60;99.90
25753;DHT22;13600;50.816;4.416;2022-11-11T10:06:17;12.70;99.90
25753;DHT22;13600;50.816;4.416;2022-11-11T10:08:50;12.80;99.90
25753;DHT22;13600;50.816;4.416;2022-11-11T10:11:26;12.70;99.90
25753;DHT22;13600;50.816;4.416;2022-11-11T10:13:54;12.70;99.90
25753;DHT22;13600;50.816;4.416;2022-11-11T10:16:37;12.70;99.90
25753;DHT22;13600;50.816;4.416;2022-11-11T10:19:30;12.80;99.90
25753;DHT22;13600;50.816;4.416;2022-11-11T10:22:21;12.90;99.90
25753;DHT22;13600;50.816;4.416;2022-11-11T10:24:59;12.90;99.90
25753;DHT22;13600;50.816;4.416;2022-11-11T10:27:27;13.00;99.90
25753;DHT22;13600;50.816;4.416;2022-11-11T10:29:53;13.10;99.90
25753;DHT22;13600;50.816;4.416;2022-11-11T10:32:26;13.20;99.90
25753;DHT22;13600;50.816;4.416;2022-11-11T10:34:54;13.20;99.90
25753;DHT22;13600;50.816;4.416;2022-11-11T10:37:34;13.30;99.90
25753;DHT22;13600;50.816;4.416;2022-11-11T10:40:17;13.40;99.90
25753;DHT22;13600;50.816;4.416;2022-11-11T10:42:45;13.40;99.90
25753;DHT22;13600;50.816;4.416;2022-11-11T10:48:04;13.70;99.90
25753;DHT22;13600;50.816;4.416;2022-11-11T10:50:33;13.80;99.90
25753;DHT22;13600;50.816;4.416;2022-11-11T10:53:06;13.80;99.90
25753;DHT22;13600;50.816;4.416;2022-11-11T11:01:14;14.30;99.90
25753;DHT22;13600;50.816;4.416;2022-11-11T11:03:46;14.40;99.90
25753;DHT22;13600;50.816;4.416;2022-11-11T11:06:27;14.50;99.90
25753;DHT22;13600;50.816;4.416;2022-11-11T11:09:17;14.40;99.90
25753;DHT22;13600;50.816;4.416;2022-11-11T11:11:58;14.80;99.90
25753;DHT22;13600;50.816;4.416;2022-11-11T11:14:31;15.10;99.90
25753;DHT22;13600;50.816;4.416;2022-11-11T11:17:00;15.20;99.90
25753;DHT22;13600;50.816;4.416;2022-11-11T11:19:29;15.20;99.90
25753;DHT22;13600;50.816;4.416;2022-11-11T11:21:56;15.30;99.90
25753;DHT22;13600;50.816;4.416;2022-11-11T11:24:28;15.50;99.90
25753;DHT22;13600;50.816;4.416;2022-11-11T11:26:56;15.80;99.90
25753;DHT22;13600;50.816;4.416;2022-11-11T11:32:19;16.40;99.90
25753;DHT22;13600;50.816;4.416;2022-11-11T11:34:48;16.80;99.90
25753;DHT22;13600;50.816;4.416;2022-11-11T11:37:14;17.10;99.90
25753;DHT22;13600;50.816;4.416;2022-11-11T11:39:40;17.10;99.90
25753;DHT22;13600;50.816;4.416;2022-11-11T11:42:06;17.50;99.90
25753;DHT22;13600;50.816;4.416;2022-11-11T11:44:34;17.70;99.90
25753;DHT22;13600;50.816;4.416;2022-11-11T11:47:12;18.00;99.90
25753;DHT22;13600;50.816;4.416;2022-11-11T11:50:09;18.00;99.90
25753;DHT22;13600;50.816;4.416;2022-11-11T11:55:41;17.80;99.90
25753;DHT22;13600;50.816;4.416;2022-11-11T11:58:35;17.80;99.90
25753;DHT22;13600;50.816;4.416;2022-11-11T12:01:03;17.80;99.90
25753;DHT22;13600;50.816;4.416;2022-11-11T12:03:52;17.70;99.90
25753;DHT22;13600;50.816;4.416;2022-11-11T12:11:54;18.00;99.90
25753;DHT22;13600;50.816;4.416;2022-11-11T12:30:47;18.20;99.90
25753;DHT22;13600;50.816;4.416;2022-11-11T12:52:25;17.90;99.90
25753;DHT22;13600;50.816;4.416;2022-11-11T12:55:12;17.70;99.90
25753;DHT22;13600;50.816;4.416;2022-11-11T12:57:42;17.70;99.90
25753;DHT22;13600;50.816;4.416;2022-11-11T13:00:20;17.80;99.90
25753;DHT22;13600;50.816;4.416;2022-11-11T13:05:19;17.90;99.90
25753;DHT22;13600;50.816;4.416;2022-11-11T13:10:24;17.90;99.90
25753;DHT22;13600;50.816;4.416;2022-11-11T13:13:03;17.90;99.90
25753;DHT22;13600;50.816;4.416;2022-11-11T13:15:35;17.70;99.90
25753;DHT22;13600;50.816;4.416;2022-11-11T13:18:01;17.70;99.90
25753;DHT22;13600;50.816;4.416;2022-11-11T13:20:43;17.80;99.90
25753;DHT22;13600;50.816;4.416;2022-11-11T13:23:11;17.70;99.90
25753;DHT22;13600;50.816;4.416;2022-11-11T13:25:42;17.70;99.90
25753;DHT22;13600;50.816;4.416;2022-11-11T13:28:43;17.70;99.90
25753;DHT22;13600;50.816;4.416;2022-11-11T13:31:30;17.70;99.90
25753;DHT22;13600;50.816;4.416;2022-11-11T13:34:03;17.80;99.90
25753;DHT22;13600;50.816;4.416;2022-11-11T13:36:42;17.80;99.90
25753;DHT22;13600;50.816;4.416;2022-11-11T13:39:24;17.80;99.90
25753;DHT22;13600;50.816;4.416;2022-11-11T13:41:54;17.80;99.90
25753;DHT22;13600;50.816;4.416;2022-11-11T13:44:27;17.90;99.90
25753;DHT22;13600;50.816;4.416;2022-11-11T13:47:01;17.80;99.90
25753;DHT22;13600;50.816;4.416;2022-11-11T13:50:07;17.70;99.90
25753;DHT22;13600;50.816;4.416;2022-11-11T13:52:33;17.50;99.90
25753;DHT22;13600;50.816;4.416;2022-11-11T13:55:08;17.40;99.90
25753;DHT22;13600;50.816;4.416;2022-11-11T13:57:50;17.50;99.90
25753;DHT22;13600;50.816;4.416;2022-11-11T14:02:42;17.40;99.90
25753;DHT22;13600;50.816;4.416;2022-11-11T14:12:48;17.20;99.90
25753;DHT22;13600;50.816;4.416;2022-11-11T14:20:43;16.90;99.90
25753;DHT22;13600;50.816;4.416;2022-11-11T14:25:45;16.90;99.90
25753;DHT22;13600;50.816;4.416;2022-11-11T14:33:55;16.70;99.90
25753;DHT22;13600;50.816;4.416;2022-11-11T14:36:38;16.60;99.90
25753;DHT22;13600;50.816;4.416;2022-11-11T14:39:30;16.60;99.90
25753;DHT22;13600;50.816;4.416;2022-11-11T14:41:57;16.50;99.90
25753;DHT22;13600;50.816;4.416;2022-11-11T14:52:27;16.30;99.90
25753;DHT22;13600;50.816;4.416;2022-11-11T14:57:47;16.10;99.90
25753;DHT22;13600;50.816;4.416;2022-11-11T15:00:17;16.00;99.90
25753;DHT22;13600;50.816;4.416;2022-11-11T15:02:54;16.00;99.90
25753;DHT22;13600;50.816;4.416;2022-11-11T15:08:02;15.90;99.90
25753;DHT22;13600;50.816;4.416;2022-11-11T15:19:16;15.60;99.90
25753;DHT22;13600;50.816;4.416;2022-11-11T15:22:30;15.60;99.90
25753;DHT22;13600;50.816;4.416;2022-11-11T15:28:03;15.40;99.90
25753;DHT22;13600;50.816;4.416;2022-11-11T15:30:49;15.30;99.90
25753;DHT22;13600;50.816;4.416;2022-11-11T15:38:36;15.20;99.90
25753;DHT22;13600;50.816;4.416;2022-11-11T15:41:01;15.30;99.90
25753;DHT22;13600;50.816;4.416;2022-11-11T15:43:29;15.30;99.90
25753;DHT22;13600;50.816;4.416;2022-11-11T15:45:57;15.10;99.90
25753;DHT22;13600;50.816;4.416;2022-11-11T15:48:42;15.00;99.90
25753;DHT22;13600;50.816;4.416;2022-11-11T15:51:15;14.80;99.90
25753;DHT22;13600;50.816;4.416;2022-11-11T15:53:41;14.90;99.90
25753;DHT22;13600;50.816;4.416;2022-11-11T15:56:08;14.80;99.90
25753;DHT22;13600;50.816;4.416;2022-11-11T15:58:33;14.70;99.90
25753;DHT22;13600;50.816;4.416;2022-11-11T16:01:05;14.60;99.90
25753;DHT22;13600;50.816;4.416;2022-11-11T16:03:40;14.40;99.90
25753;DHT22;13600;50.816;4.416;2022-11-11T16:06:16;14.20;99.90
25753;DHT22;13600;50.816;4.416;2022-11-11T16:08:48;14.10;99.90
25753;DHT22;13600;50.816;4.416;2022-11-11T16:11:16;14.10;99.90
25753;DHT22;13600;50.816;4.416;2022-11-11T16:13:52;14.00;99.90
25753;DHT22;13600;50.816;4.416;2022-11-11T16:16:30;14.10;99.90
25753;DHT22;13600;50.816;4.416;2022-11-11T16:22:05;14.10;99.90
25753;DHT22;13600;50.816;4.416;2022-11-11T16:24:36;13.80;99.90
25753;DHT22;13600;50.816;4.416;2022-11-11T16:27:03;13.60;99.90
25753;DHT22;13600;50.816;4.416;2022-11-11T16:29:36;13.50;99.90
25753;DHT22;13600;50.816;4.416;2022-11-11T16:34:54;13.80;99.90
25753;DHT22;13600;50.816;4.416;2022-11-11T16:37:20;13.70;99.90
25753;DHT22;13600;50.816;4.416;2022-11-11T16:39:46;13.50;99.90
25753;DHT22;13600;50.816;4.416;2022-11-11T16:42:18;13.40;99.90
25753;DHT22;13600;50.816;4.416;2022-11-11T16:44:56;13.40;99.90
25753;DHT22;13600;50.816;4.416;2022-11-11T16:53:23;13.00;99.90
25753;DHT22;13600;50.816;4.416;2022-11-11T16:55:50;12.90;99.90
25753;DHT22;13600;50.816;4.416;2022-11-11T16:58:19;12.90;99.90
25753;DHT22;13600;50.816;4.416;2022-11-11T17:00:46;12.70;99.90
25753;DHT22;13600;50.816;4.416;2022-11-11T17:03:18;12.60;99.90
25753;DHT22;13600;50.816;4.416;2022-11-11T17:08:45;12.90;99.90
25753;DHT22;13600;50.816;4.416;2022-11-11T17:14:05;12.90;99.90
25753;DHT22;13600;50.816;4.416;2022-11-11T17:16:31;12.80;99.90
25753;DHT22;13600;50.816;4.416;2022-11-11T17:18:59;12.60;99.90
25753;DHT22;13600;50.816;4.416;2022-11-11T17:21:25;12.50;99.90
25753;DHT22;13600;50.816;4.416;2022-11-11T17:23:51;12.50;99.90
25753;DHT22;13600;50.816;4.416;2022-11-11T17:26:17;12.30;99.90
25753;DHT22;13600;50.816;4.416;2022-11-11T17:28:43;12.50;99.90
25753;DHT22;13600;50.816;4.416;2022-11-11T17:31:10;12.60;99.90
25753;DHT22;13600;50.816;4.416;2022-11-11T17:33:36;12.90;99.90
25753;DHT22;13600;50.816;4.416;2022-11-11T17:36:02;13.00;99.90
25753;DHT22;13600;50.816;4.416;2022-11-11T17:38:28;12.90;99.90
25753;DHT22;13600;50.816;4.416;2022-11-11T17:40:54;12.80;99.90
25753;DHT22;13600;50.816;4.416;2022-11-11T17:43:19;12.80;99.90
25753;DHT22;13600;50.816;4.416;2022-11-11T17:45:45;12.60;99.90
25753;DHT22;13600;50.816;4.416;2022-11-11T17:48:11;12.40;99.90
25753;DHT22;13600;50.816;4.416;2022-11-11T17:50:38;12.40;99.90
25753;DHT22;13600;50.816;4.416;2022-11-11T17:53:04;12.30;99.90
25753;DHT22;13600;50.816;4.416;2022-11-11T17:55:31;12.50;99.90
25753;DHT22;13600;50.816;4.416;2022-11-11T17:57:58;12.60;99.90
25753;DHT22;13600;50.816;4.416;2022-11-11T18:00:24;12.70;99.90
25753;DHT22;13600;50.816;4.416;2022-11-11T18:02:50;12.70;99.90
25753;DHT22;13600;50.816;4.416;2022-11-11T18:05:15;12.60;99.90
25753;DHT22;13600;50.816;4.416;2022-11-11T18:07:41;12.30;99.90
25753;DHT22;13600;50.816;4.416;2022-11-11T18:10:07;12.20;99.90
25753;DHT22;13600;50.816;4.416;2022-11-11T18:12:34;12.00;99.90
25753;DHT22;13600;50.816;4.416;2022-11-11T18:15:01;12.20;99.90
25753;DHT22;13600;50.816;4.416;2022-11-11T18:17:26;12.20;99.90
25753;DHT22;13600;50.816;4.416;2022-11-11T18:19:52;12.30;99.90
25753;DHT22;13600;50.816;4.416;2022-11-11T18:22:18;12.00;99.90
25753;DHT22;13600;50.816;4.416;2022-11-11T18:24:43;11.90;99.90
25753;DHT22;13600;50.816;4.416;2022-11-11T18:27:09;11.80;99.90